createdAt,value
2022-09-27T00:01:09.737Z,3.00
2022-09-27T00:03:37.774Z,2.40
2022-09-27T00:06:08.434Z,4.00
2022-09-27T00:08:37.286Z,2.60
2022-09-27T00:11:15.518Z,3.00
2022-09-27T00:13:43.524Z,2.60
2022-09-27T00:16:11.416Z,3.80
2022-09-27T00:18:39.302Z,2.60
2022-09-27T00:21:09.440Z,4.20
2022-09-27T00:23:37.973Z,3.00
2022-09-27T00:26:06.822Z,3.00
2022-09-27T00:28:34.886Z,2.80
2022-09-27T00:31:02.652Z,2.40
2022-09-27T00:33:30.190Z,3.20
2022-09-27T00:36:06.152Z,2.60
2022-09-27T00:38:33.816Z,5.00
2022-09-27T00:41:01.332Z,4.40
2022-09-27T00:43:45.830Z,3.00
2022-09-27T00:46:15.843Z,3.20
2022-09-27T00:48:43.526Z,3.20
2022-09-27T00:51:11.299Z,3.00
2022-09-27T00:53:46.873Z,3.00
2022-09-27T00:56:22.330Z,3.00
2022-09-27T00:59:00.084Z,1.00
2022-09-27T01:01:30.780Z,4.40
2022-09-27T01:04:08.070Z,3.00
2022-09-27T01:06:36.683Z,3.20
2022-09-27T01:09:09.368Z,4.00
2022-09-27T01:11:54.792Z,6.00
2022-09-27T01:14:34.537Z,3.00
2022-09-27T01:17:38.838Z,3.00
2022-09-27T01:20:55.711Z,2.40
2022-09-27T01:24:01.424Z,2.20
2022-09-27T01:27:07.602Z,2.60
2022-09-27T01:29:58.176Z,3.80
2022-09-27T01:32:48.881Z,1.80
2022-09-27T01:35:49.561Z,2.80
2022-09-27T01:38:38.980Z,3.40
2022-09-27T01:41:33.249Z,3.80
2022-09-27T01:44:25.304Z,5.00
2022-09-27T01:47:05.934Z,6.00
2022-09-27T01:50:10.341Z,2.00
2022-09-27T01:52:46.351Z,3.00
2022-09-27T01:55:17.394Z,5.00
2022-09-27T01:58:13.762Z,2.40
2022-09-27T02:00:49.878Z,3.00
2022-09-27T02:03:41.223Z,2.20
2022-09-27T02:06:35.760Z,3.00
2022-09-27T02:09:33.752Z,3.00
2022-09-27T02:12:21.421Z,4.40
2022-09-27T02:15:04.361Z,5.00
2022-09-27T02:17:55.923Z,5.00
2022-09-27T02:20:51.954Z,3.00
2022-09-27T02:23:44.055Z,3.80
2022-09-27T02:26:24.780Z,2.40
2022-09-27T02:29:01.985Z,3.60
2022-09-27T02:31:40.534Z,3.00
2022-09-27T02:34:12.481Z,3.00
2022-09-27T02:36:40.484Z,3.80
2022-09-27T02:39:08.389Z,3.60
2022-09-27T02:41:36.794Z,3.40
2022-09-27T02:44:08.924Z,4.20
2022-09-27T02:47:02.177Z,4.20
2022-09-27T02:50:00.211Z,3.00
2022-09-27T02:53:09.176Z,5.00
2022-09-27T02:56:09.504Z,2.80
2022-09-27T02:59:27.923Z,5.60
2022-09-27T03:02:15.481Z,5.20
2022-09-27T03:05:05.814Z,3.20
2022-09-27T03:07:34.797Z,2.80
2022-09-27T03:10:02.541Z,3.00
2022-09-27T03:12:30.175Z,3.20
2022-09-27T03:15:00.383Z,3.00
2022-09-27T03:18:03.998Z,2.40
2022-09-27T03:20:49.906Z,5.00
2022-09-27T03:23:20.355Z,6.80
2022-09-27T03:25:48.759Z,2.40
2022-09-27T03:28:16.951Z,5.40
2022-09-27T03:30:48.083Z,3.20
2022-09-27T03:33:35.560Z,2.60
2022-09-27T03:36:08.656Z,2.60
2022-09-27T03:38:36.292Z,3.60
2022-09-27T03:41:05.084Z,5.20
2022-09-27T03:43:32.644Z,3.80
2022-09-27T03:46:03.400Z,5.40
2022-09-27T03:48:33.816Z,3.60
2022-09-27T03:51:01.318Z,3.80
2022-09-27T03:53:29.719Z,6.00
2022-09-27T03:55:57.476Z,2.20
2022-09-27T03:58:25.151Z,6.00
2022-09-27T04:00:52.707Z,5.00
2022-09-27T04:03:20.114Z,6.00
2022-09-27T04:06:06.989Z,6.00
2022-09-27T04:08:39.023Z,2.60
2022-09-27T04:11:07.821Z,2.80
2022-09-27T04:13:35.997Z,5.00
2022-09-27T04:16:04.062Z,5.00
2022-09-27T04:19:04.598Z,3.80
2022-09-27T04:21:50.715Z,3.40
2022-09-27T04:24:19.158Z,5.00
2022-09-27T04:27:09.742Z,5.60
2022-09-27T04:29:43.394Z,5.00
2022-09-27T04:32:27.374Z,6.60
2022-09-27T04:35:32.726Z,3.00
2022-09-27T04:38:00.850Z,6.20
2022-09-27T04:40:28.432Z,8.00
2022-09-27T04:42:56.768Z,6.80
2022-09-27T04:45:24.284Z,6.40
2022-09-27T04:47:51.817Z,5.80
2022-09-27T04:50:20.396Z,11.20
2022-09-27T04:53:02.542Z,6.00
2022-09-27T04:55:30.359Z,6.00
2022-09-27T04:57:58.342Z,11.60
2022-09-27T05:00:28.774Z,6.00
2022-09-27T05:03:03.824Z,6.40
2022-09-27T05:05:34.035Z,9.40
2022-09-27T05:08:02.324Z,6.00
2022-09-27T05:10:49.823Z,2.20
2022-09-27T05:13:18.774Z,8.00
2022-09-27T05:15:46.546Z,7.00
2022-09-27T05:18:52.779Z,6.20
2022-09-27T05:21:59.254Z,5.80
2022-09-27T05:24:31.972Z,8.20
2022-09-27T05:27:01.262Z,4.00
2022-09-27T05:29:29.539Z,7.80
2022-09-27T05:32:14.160Z,6.80
2022-09-27T05:34:43.036Z,6.50
2022-09-27T05:37:10.985Z,9.00
2022-09-27T05:39:41.077Z,8.00
2022-09-27T05:42:10.555Z,8.25
2022-09-27T05:44:39.678Z,7.75
2022-09-27T05:47:07.821Z,6.75
2022-09-27T05:49:37.462Z,6.00
2022-09-27T05:52:05.784Z,7.00
2022-09-27T05:54:33.926Z,6.00
2022-09-27T05:57:01.591Z,5.75
2022-09-27T05:59:43.293Z,9.00
2022-09-27T06:02:31.616Z,4.25
2022-09-27T06:05:05.660Z,6.25
2022-09-27T06:07:52.470Z,6.50
2022-09-27T06:10:30.035Z,8.00
2022-09-27T06:13:09.128Z,6.50
2022-09-27T06:15:42.061Z,6.00
2022-09-27T06:18:13.088Z,6.50
2022-09-27T06:20:43.217Z,6.25
2022-09-27T06:23:15.819Z,6.25
2022-09-27T06:25:44.080Z,6.60
2022-09-27T06:28:20.293Z,4.80
2022-09-27T06:30:51.055Z,5.40
2022-09-27T06:33:36.821Z,6.00
2022-09-27T06:36:08.897Z,6.00
2022-09-27T06:38:39.205Z,6.20
2022-09-27T06:41:16.799Z,6.00
2022-09-27T06:44:02.000Z,6.20
2022-09-27T06:46:48.202Z,3.60
2022-09-27T06:49:36.014Z,5.60
2022-09-27T06:52:03.843Z,5.00
2022-09-27T06:54:31.879Z,7.20
2022-09-27T06:57:02.666Z,5.00
2022-09-27T06:59:49.335Z,6.60
2022-09-27T07:02:35.761Z,4.40
2022-09-27T07:05:21.521Z,6.80
2022-09-27T07:08:29.182Z,5.20
2022-09-27T07:11:02.961Z,5.40
2022-09-27T07:13:33.162Z,4.00
2022-09-27T07:16:04.162Z,3.80
2022-09-27T07:18:32.124Z,4.80
2022-09-27T07:21:02.104Z,5.60
2022-09-27T07:23:31.124Z,3.20
2022-09-27T07:26:05.042Z,4.20
2022-09-27T07:28:33.404Z,7.00
2022-09-27T07:31:03.049Z,7.40
2022-09-27T07:33:32.521Z,6.00
2022-09-27T07:36:08.041Z,4.60
2022-09-27T07:38:37.244Z,4.40
2022-09-27T07:41:14.303Z,6.00
2022-09-27T07:43:45.226Z,4.20
2022-09-27T07:46:14.613Z,4.60
2022-09-27T07:49:00.669Z,5.40
2022-09-27T07:52:06.452Z,6.00
2022-09-27T07:54:48.396Z,3.40
2022-09-27T07:57:32.871Z,5.40
2022-09-27T08:00:02.120Z,5.20
2022-09-27T08:02:29.954Z,5.00
2022-09-27T08:04:57.351Z,4.00
2022-09-27T08:07:28.096Z,3.20
2022-09-27T08:09:57.363Z,4.80
2022-09-27T08:12:25.222Z,5.40
2022-09-27T08:14:53.068Z,3.20
2022-09-27T08:17:21.471Z,2.60
2022-09-27T08:20:08.597Z,4.20
2022-09-27T08:22:47.887Z,5.20
2022-09-27T08:25:30.830Z,15.25
2022-09-27T08:28:09.998Z,7.20
2022-09-27T08:30:50.144Z,6.60
2022-09-27T08:33:18.270Z,35.60
2022-09-27T08:35:46.021Z,11.60
2022-09-27T08:38:13.974Z,10.00
2022-09-27T08:40:56.746Z,5.60
2022-09-27T08:47:20.957Z,9.80
2022-09-27T08:49:57.900Z,10.40
2022-09-27T08:52:43.513Z,7.60
2022-09-27T08:55:32.732Z,9.20
2022-09-27T08:58:00.875Z,6.60
2022-09-27T09:00:30.408Z,6.60
2022-09-27T09:03:01.852Z,17.40
2022-09-27T09:05:35.130Z,7.80
2022-09-27T09:08:21.220Z,9.80
2022-09-27T09:11:13.984Z,6.20
2022-09-27T09:14:08.237Z,7.40
2022-09-27T09:17:25.490Z,12.40
2022-09-27T09:20:22.644Z,6.20
2022-09-27T09:23:05.960Z,7.80
2022-09-27T09:25:57.181Z,8.80
2022-09-27T09:28:24.849Z,7.40
2022-09-27T09:31:07.495Z,8.50
2022-09-27T09:33:46.717Z,18.00
2022-09-27T09:36:35.162Z,6.20
2022-09-27T09:39:16.821Z,6.00
2022-09-27T09:42:09.189Z,5.25
2022-09-27T09:45:06.175Z,8.25
2022-09-27T09:47:44.863Z,6.50
2022-09-27T09:50:33.423Z,19.25
2022-09-27T09:53:26.232Z,6.50
2022-09-27T09:56:02.677Z,7.00
2022-09-27T09:58:40.696Z,7.25
2022-09-27T10:01:21.297Z,7.75
2022-09-27T10:03:49.541Z,4.00
2022-09-27T10:06:18.685Z,5.00
2022-09-27T10:08:47.788Z,5.50
2022-09-27T10:11:41.116Z,6.75
2022-09-27T10:14:20.789Z,7.25
2022-09-27T10:16:58.799Z,8.75
2022-09-27T10:19:30.772Z,6.75
2022-09-27T10:22:10.774Z,5.00
2022-09-27T10:25:03.828Z,9.50
2022-09-27T10:27:53.603Z,6.67
2022-09-27T10:30:33.492Z,5.25
2022-09-27T10:33:16.916Z,7.50
2022-09-27T10:35:49.592Z,9.00
2022-09-27T10:38:35.582Z,8.00
2022-09-27T10:41:32.552Z,9.00
2022-09-27T10:44:16.823Z,10.25
2022-09-27T10:46:52.389Z,7.50
2022-09-27T10:49:43.897Z,8.50
2022-09-27T10:52:28.921Z,8.00
2022-09-27T10:55:15.145Z,7.25
2022-09-27T10:57:54.124Z,7.75
2022-09-27T11:00:29.872Z,6.25
2022-09-27T11:03:02.484Z,9.75
2022-09-27T11:05:38.569Z,8.50
2022-09-27T11:08:29.029Z,12.75
2022-09-27T11:11:34.831Z,9.25
2022-09-27T11:14:18.194Z,9.00
2022-09-27T11:17:22.435Z,11.00
2022-09-27T11:20:13.749Z,10.75
2022-09-27T11:22:47.533Z,10.00
2022-09-27T11:25:44.392Z,11.75
2022-09-27T11:28:39.743Z,10.00
2022-09-27T11:31:35.010Z,10.25
2022-09-27T11:34:26.881Z,7.75
2022-09-27T11:37:37.716Z,9.50
2022-09-27T11:40:31.154Z,13.50
2022-09-27T11:43:28.022Z,8.75
2022-09-27T11:46:19.203Z,8.50
2022-09-27T11:49:41.614Z,10.75
2022-09-27T11:52:34.647Z,9.50
2022-09-27T11:55:21.283Z,11.00
2022-09-27T11:58:09.051Z,17.25
2022-09-27T12:01:21.453Z,6.75
2022-09-27T12:04:20.244Z,7.75
2022-09-27T12:07:39.259Z,8.25
2022-09-27T12:10:17.208Z,9.50
2022-09-27T12:12:57.174Z,11.75
2022-09-27T12:15:33.280Z,8.50
2022-09-27T12:18:10.281Z,10.25
2022-09-27T12:20:41.294Z,9.75
2022-09-27T12:23:22.574Z,11.50
2022-09-27T12:26:05.903Z,6.75
2022-09-27T12:28:59.961Z,9.25
2022-09-27T12:31:46.665Z,9.00
2022-09-27T12:34:50.224Z,9.25
2022-09-27T12:37:38.434Z,9.50
2022-09-27T12:40:26.239Z,9.75
2022-09-27T12:43:17.737Z,10.00
2022-09-27T12:46:03.954Z,8.50
2022-09-27T12:49:00.757Z,10.75
2022-09-27T12:51:47.032Z,10.75
2022-09-27T12:54:33.299Z,11.50
2022-09-27T12:57:20.551Z,9.25
2022-09-27T13:00:10.809Z,11.25
2022-09-27T13:03:17.154Z,10.75
2022-09-27T13:06:11.512Z,8.50
2022-09-27T13:08:58.549Z,10.25
2022-09-27T13:11:47.023Z,9.00
2022-09-27T13:14:26.352Z,9.75
2022-09-27T13:16:54.119Z,9.50
2022-09-27T13:19:45.901Z,9.00
2022-09-27T13:22:27.928Z,10.25
2022-09-27T13:25:44.150Z,9.50
2022-09-27T13:29:02.394Z,9.00
2022-09-27T13:32:21.192Z,9.50
2022-09-27T13:35:25.156Z,8.25
2022-09-27T13:38:25.330Z,9.00
2022-09-27T13:40:54.859Z,9.50
2022-09-27T13:44:10.037Z,6.75
2022-09-27T13:47:01.331Z,7.00
2022-09-27T13:49:38.420Z,7.00
2022-09-27T13:52:27.352Z,8.00
2022-09-27T13:55:44.748Z,9.75
2022-09-27T13:58:44.335Z,10.50
2022-09-27T14:01:59.732Z,7.00
2022-09-27T14:04:42.685Z,10.25
2022-09-27T14:07:15.976Z,7.75
2022-09-27T14:09:48.777Z,6.25
2022-09-27T14:12:25.733Z,9.50
2022-09-27T14:14:56.260Z,10.00
2022-09-27T14:17:25.172Z,9.00
2022-09-27T14:19:54.657Z,9.50
2022-09-27T14:22:25.107Z,8.25
2022-09-27T14:24:57.614Z,8.25
2022-09-27T14:27:38.043Z,7.00
2022-09-27T14:30:37.771Z,8.50
2022-09-27T14:33:31.596Z,6.00
2022-09-27T14:36:26.563Z,7.00
2022-09-27T14:38:59.116Z,8.00
2022-09-27T14:41:38.635Z,8.00
2022-09-27T14:44:15.843Z,8.75
2022-09-27T14:46:43.706Z,8.75
2022-09-27T14:49:25.332Z,13.25
2022-09-27T14:51:56.956Z,11.25
2022-09-27T14:54:31.782Z,14.75
2022-09-27T14:57:00.506Z,9.75
2022-09-27T14:59:34.502Z,10.50
2022-09-27T15:02:15.434Z,8.75
2022-09-27T15:04:47.138Z,11.00
2022-09-27T15:07:18.144Z,32.00
2022-09-27T15:09:46.282Z,15.00
2022-09-27T15:12:23.293Z,19.25
2022-09-27T15:14:54.140Z,30.00
2022-09-27T15:17:22.887Z,11.00
2022-09-27T15:20:02.718Z,12.00
2022-09-27T15:22:36.394Z,45.40
2022-09-27T15:25:34.844Z,44.60
2022-09-27T15:28:15.948Z,18.75
2022-09-27T15:30:56.690Z,36.40
2022-09-27T15:33:28.183Z,26.40
2022-09-27T15:35:59.299Z,84.60
2022-09-27T15:38:31.191Z,53.80
2022-09-27T15:41:02.220Z,25.60
2022-09-27T15:43:35.259Z,15.50
2022-09-27T15:46:06.251Z,17.00
2022-09-27T15:48:37.762Z,8.25
2022-09-27T15:51:41.494Z,6.00
2022-09-27T15:54:08.958Z,8.50
2022-09-27T15:56:36.838Z,8.00
2022-09-27T15:59:04.710Z,8.00
2022-09-27T16:01:32.408Z,7.50
2022-09-27T16:04:00.639Z,6.25
2022-09-27T16:06:29.419Z,18.00
2022-09-27T16:08:56.749Z,9.00
2022-09-27T16:11:24.333Z,8.00
2022-09-27T16:13:53.238Z,7.75
2022-09-27T16:16:21.794Z,6.50
2022-09-27T16:18:49.916Z,8.25
2022-09-27T16:21:17.899Z,5.75
2022-09-27T16:23:45.484Z,9.00
2022-09-27T16:26:13.686Z,6.50
2022-09-27T16:28:41.157Z,8.50
2022-09-27T16:31:10.324Z,8.25
2022-09-27T16:33:37.917Z,8.00
2022-09-27T16:36:14.645Z,10.25
2022-09-27T16:38:49.456Z,6.75
2022-09-27T16:41:17.308Z,7.50
2022-09-27T16:43:45.916Z,7.00
2022-09-27T16:46:16.227Z,6.75
2022-09-27T16:48:43.711Z,6.00
2022-09-27T16:51:38.581Z,9.25
2022-09-27T16:54:07.476Z,6.50
2022-09-27T16:56:36.041Z,6.00
2022-09-27T16:59:05.101Z,7.20
2022-09-27T17:01:32.641Z,8.00
2022-09-27T17:04:02.787Z,8.00
2022-09-27T17:06:32.067Z,6.75
2022-09-27T17:09:03.661Z,9.20
2022-09-27T17:11:31.619Z,6.00
2022-09-27T17:13:59.063Z,11.00
2022-09-27T17:16:26.630Z,8.80
2022-09-27T17:18:54.268Z,6.40
2022-09-27T17:21:22.177Z,7.00
2022-09-27T17:23:49.718Z,9.00
2022-09-27T17:26:21.744Z,8.20
2022-09-27T17:28:50.503Z,9.00
2022-09-27T17:31:19.333Z,7.20
2022-09-27T17:33:56.819Z,8.80
2022-09-27T17:36:27.636Z,5.60
2022-09-27T17:38:55.062Z,13.00
2022-09-27T17:41:24.658Z,11.20
2022-09-27T17:43:58.676Z,9.80
2022-09-27T17:46:32.149Z,13.20
2022-09-27T17:49:18.252Z,10.00
2022-09-27T17:51:51.071Z,5.20
2022-09-27T17:54:20.471Z,6.80
2022-09-27T17:56:48.484Z,10.60
2022-09-27T17:59:16.833Z,4.80
2022-09-27T18:01:48.169Z,5.60
2022-09-27T18:04:18.370Z,11.00
2022-09-27T18:06:47.271Z,7.00
2022-09-27T18:09:17.323Z,8.20
2022-09-27T18:11:45.517Z,7.20
2022-09-27T18:14:13.360Z,5.00
2022-09-27T18:16:44.355Z,6.60
2022-09-27T18:19:15.452Z,4.40
2022-09-27T18:21:43.636Z,7.60
2022-09-27T18:24:11.404Z,6.60
2022-09-27T18:26:40.465Z,6.00
2022-09-27T18:29:19.197Z,6.60
2022-09-27T18:31:49.193Z,5.80
2022-09-27T18:34:18.651Z,4.40
2022-09-27T18:36:47.134Z,6.20
2022-09-27T18:39:19.771Z,6.80
2022-09-27T18:41:50.951Z,6.80
2022-09-27T18:44:19.135Z,7.00
2022-09-27T18:46:47.215Z,8.20
2022-09-27T18:49:15.861Z,5.80
2022-09-27T18:51:46.517Z,5.80
2022-09-27T18:54:17.255Z,7.20
2022-09-27T18:56:45.321Z,6.60
2022-09-27T18:59:14.316Z,7.00
2022-09-27T19:01:46.018Z,5.00
2022-09-27T19:04:21.600Z,5.60
2022-09-27T19:06:52.300Z,6.60
2022-09-27T19:09:19.951Z,4.60
2022-09-27T19:11:47.491Z,6.00
2022-09-27T19:14:20.585Z,4.00
2022-09-27T19:16:48.814Z,6.80
2022-09-27T19:19:17.858Z,7.40
2022-09-27T19:21:45.951Z,6.60
2022-09-27T19:24:14.532Z,8.60
2022-09-27T19:26:42.574Z,9.80
2022-09-27T19:29:10.659Z,8.80
2022-09-27T19:31:38.169Z,5.20
2022-09-27T19:34:06.299Z,6.20
2022-09-27T19:36:34.176Z,7.40
2022-09-27T19:39:02.616Z,8.00
2022-09-27T19:41:30.114Z,6.00
2022-09-27T19:43:57.750Z,8.40
2022-09-27T19:46:26.983Z,4.00
2022-09-27T19:48:56.339Z,4.80
2022-09-27T19:51:26.399Z,6.20
2022-09-27T19:53:54.182Z,3.60
2022-09-27T19:56:22.398Z,6.20
2022-09-27T19:58:50.478Z,5.60
2022-09-27T20:01:21.486Z,4.80
2022-09-27T20:03:52.148Z,4.00
2022-09-27T20:06:20.977Z,3.60
2022-09-27T20:08:48.879Z,5.40
2022-09-27T20:11:22.257Z,5.00
2022-09-27T20:13:52.358Z,5.00
2022-09-27T20:16:27.048Z,4.00
2022-09-27T20:18:57.150Z,4.60
2022-09-27T20:21:32.886Z,6.80
2022-09-27T20:24:02.361Z,5.60
2022-09-27T20:26:31.267Z,3.20
2022-09-27T20:29:00.357Z,3.40
2022-09-27T20:31:30.594Z,5.00
2022-09-27T20:33:58.209Z,2.20
2022-09-27T20:36:34.534Z,4.80
2022-09-27T20:39:07.145Z,3.00
2022-09-27T20:41:37.276Z,3.60
2022-09-27T20:44:10.498Z,3.60
2022-09-27T20:46:40.415Z,3.80
2022-09-27T20:49:10.241Z,2.80
2022-09-27T20:51:40.303Z,3.20
2022-09-27T20:54:10.320Z,5.00
2022-09-27T20:56:41.062Z,2.80
2022-09-27T20:59:17.276Z,4.00
2022-09-27T21:01:46.909Z,3.00
2022-09-27T21:04:17.269Z,3.00
2022-09-27T21:06:45.569Z,3.20
2022-09-27T21:09:20.512Z,4.20
2022-09-27T21:11:52.086Z,3.60
2022-09-27T21:14:20.424Z,4.00
2022-09-27T21:16:47.776Z,2.40
2022-09-27T21:19:15.579Z,3.00
2022-09-27T21:21:43.457Z,3.40
2022-09-27T21:24:11.379Z,3.20
2022-09-27T21:26:39.176Z,3.00
2022-09-27T21:29:09.265Z,3.60
2022-09-27T21:31:38.351Z,4.00
2022-09-27T21:34:06.650Z,3.60
2022-09-27T21:36:36.660Z,3.00
2022-09-27T21:39:06.819Z,2.40
2022-09-27T21:41:34.505Z,2.20
2022-09-27T21:44:06.533Z,4.00
2022-09-27T21:46:34.826Z,3.60
2022-09-27T21:49:02.644Z,2.00
2022-09-27T21:51:33.306Z,3.00
2022-09-27T21:54:03.059Z,3.00
2022-09-27T21:56:35.296Z,3.80
2022-09-27T21:59:02.958Z,2.60
2022-09-27T22:01:33.092Z,3.00
2022-09-27T22:04:01.935Z,3.00
2022-09-27T22:06:32.092Z,2.00
2022-09-27T22:09:00.936Z,3.00
2022-09-27T22:11:31.992Z,2.60
2022-09-27T22:14:00.692Z,2.00
2022-09-27T22:16:30.507Z,4.00
2022-09-27T22:18:58.847Z,3.40
2022-09-27T22:21:34.506Z,3.00
2022-09-27T22:24:07.675Z,1.40
2022-09-27T22:26:40.483Z,3.00
2022-09-27T22:29:09.239Z,2.80
2022-09-27T22:31:37.751Z,3.40
2022-09-27T22:34:07.659Z,2.20
2022-09-27T22:36:35.837Z,2.40
2022-09-27T22:39:03.794Z,3.60
2022-09-27T22:41:32.054Z,1.40
2022-09-27T22:43:59.710Z,3.80
2022-09-27T22:46:27.604Z,2.60
2022-09-27T22:48:56.329Z,2.40
2022-09-27T22:51:24.137Z,3.00
2022-09-27T22:53:51.860Z,2.20
2022-09-27T22:56:20.998Z,2.00
2022-09-27T22:58:49.374Z,3.00
2022-09-27T23:01:21.406Z,2.00
2022-09-27T23:03:51.868Z,2.00
2022-09-27T23:06:20.833Z,0.60
2022-09-27T23:08:49.209Z,1.00
2022-09-27T23:11:22.279Z,0.00
2022-09-27T23:13:51.193Z,3.60
2022-09-27T23:16:26.060Z,2.00
2022-09-27T23:18:55.590Z,2.40
2022-09-27T23:21:26.374Z,1.00
2022-09-27T23:23:56.581Z,0.60
2022-09-27T23:26:26.810Z,1.60
2022-09-27T23:29:00.331Z,2.00
2022-09-27T23:31:30.443Z,2.00
2022-09-27T23:34:01.820Z,2.00
2022-09-27T23:36:29.640Z,3.00
2022-09-27T23:39:00.811Z,2.00
2022-09-27T23:41:28.822Z,2.00
2022-09-27T23:43:56.901Z,1.00
2022-09-27T23:46:25.487Z,2.00
2022-09-27T23:48:53.739Z,1.00
2022-09-27T23:51:21.465Z,1.20
2022-09-27T23:53:49.704Z,0.40
2022-09-27T23:56:18.618Z,1.00
2022-09-27T23:58:46.970Z,2.00
